Tilford, South Dakota
Current Conditions -  °F | °C
As of 12:58 AM on Tuesday 27 Jan 2015 (Local Time) from KRCA Reporting Station
Clear Clear  
Wind Chill: 39°   Ceiling: Unl
Heat Index: 43°   Visibility: 10mi
Dew Point: 26°   Wind: 7mph
Humidity: 52%   Direction: 260°W
Pressure: 29.96"   Gusts: NA
Location:  44.2544°N, 103.292°W
Report Text: KRCA 270758Z AUTO 26006KT 10SM CLR 06/M03 A2996 RMK AO2 SLP144 T00621031 $
Loading
Personal Weather Stations






























Interactive Weather Map New forecast layout! Learn more

10-Day Weather Forecast

Advertisements
Track Severe Weather on mobile